Time;durP1;ratioP1;P1;durP2;ratioP2;P2;SDS_P1;SDS_P2;PMS_P1;PMS_P2;Temp;Humidity;BMP_temperature;BMP_pressure;BME280_temperature;BME280_humidity;BME280_pressure;Samples;Min_cycle;Max_cycle;Signal;HPM_P1;HPM_P2
2023/06/18 00:01:30;;;;;;;13.57;10.77;;;;;;;20.61;67.19;101042.78;5030731;27;97071;-62
2023/06/18 00:03:56;;;;;;;15.18;10.60;;;;;;;20.53;67.90;101042.47;5036987;27;96874;-62
2023/06/18 00:06:23;;;;;;;12.77;10.30;;;;;;;20.69;67.76;101035.00;5040505;27;99434;-62
2023/06/18 00:08:51;;;;;;;14.30;10.85;;;;;;;20.74;67.59;101046.31;5033078;27;97705;-62
2023/06/18 00:11:17;;;;;;;13.13;10.50;;;;;;;20.65;67.72;101049.66;5027412;27;96830;-61
2023/06/18 00:13:43;;;;;;;15.30;11.23;;;;;;;20.78;67.02;101044.22;5033929;27;96965;-61
2023/06/18 00:16:10;;;;;;;12.73;10.27;;;;;;;20.91;66.20;101051.28;5040626;27;99011;-62
2023/06/18 00:18:36;;;;;;;14.43;11.48;;;;;;;21.01;65.93;101046.94;5030436;27;98875;-61
2023/06/18 00:21:07;;;;;;;12.38;10.85;;;;;;;20.67;67.25;101050.41;5035642;27;96781;-63
2023/06/18 00:23:34;;;;;;;12.05;10.40;;;;;;;20.71;67.40;101048.34;5030394;27;96951;-63
2023/06/18 00:26:01;;;;;;;13.63;10.48;;;;;;;20.75;67.16;101045.31;5029882;27;99181;-61
2023/06/18 00:28:28;;;;;;;13.95;10.20;;;;;;;20.86;66.83;101040.03;5031110;27;101957;-62
2023/06/18 00:30:55;;;;;;;15.98;11.50;;;;;;;20.94;66.49;101039.44;5035290;27;96696;-62
2023/06/18 00:33:21;;;;;;;13.45;11.38;;;;;;;20.92;66.88;101036.03;5032264;27;96835;-62
2023/06/18 00:35:48;;;;;;;13.15;11.75;;;;;;;20.93;66.43;101043.13;5038122;27;97941;-61
2023/06/18 00:38:16;;;;;;;15.85;11.05;;;;;;;20.91;66.53;101035.16;5032000;27;98790;-61
2023/06/18 00:40:43;;;;;;;16.25;11.32;;;;;;;20.66;67.38;101032.56;5039810;27;96794;-62
2023/06/18 00:43:10;;;;;;;12.45;10.15;;;;;;;20.65;67.48;101034.41;5030991;27;96798;-61
2023/06/18 00:45:37;;;;;;;14.05;11.82;;;;;;;20.55;68.42;101036.00;5035673;27;98094;-62
2023/06/18 00:48:04;;;;;;;15.90;11.55;;;;;;;20.48;68.38;101026.69;5030292;27;98863;-62
2023/06/18 00:50:32;;;;;;;16.58;11.55;;;;;;;20.32;68.81;101041.28;5032231;27;96979;-62
2023/06/18 00:52:59;;;;;;;13.55;11.20;;;;;;;20.25;69.16;101035.50;5033463;27;97032;-62
2023/06/18 00:55:28;;;;;;;14.07;11.80;;;;;;;20.24;69.48;101031.97;5030426;27;99307;-61
2023/06/18 00:58:02;;;;;;;13.57;11.98;;;;;;;20.43;68.75;101030.69;5029287;27;98778;-62
2023/06/18 01:00:32;;;;;;;15.85;11.65;;;;;;;20.64;67.69;101032.66;5039231;27;96760;-61
2023/06/18 01:02:59;;;;;;;15.35;11.73;;;;;;;20.71;67.14;101035.78;5031607;27;97160;-61
2023/06/18 01:05:29;;;;;;;17.05;12.63;;;;;;;20.71;66.99;101042.97;5028781;27;99085;-61
2023/06/18 01:07:55;;;;;;;14.48;11.18;;;;;;;20.42;68.00;101037.00;5029368;27;100972;-61
2023/06/18 01:10:22;;;;;;;14.27;11.60;;;;;;;20.51;67.35;101036.34;5036315;27;96844;-62
2023/06/18 01:12:49;;;;;;;16.02;11.82;;;;;;;20.28;67.94;101036.13;5028989;27;96868;-61
2023/06/18 01:15:16;;;;;;;14.55;12.20;;;;;;;20.36;68.00;101040.13;5037479;27;101554;-62
2023/06/18 01:17:47;;;;;;;13.73;10.93;;;;;;;20.18;68.53;101040.44;5038515;27;98836;-61
2023/06/18 01:20:16;;;;;;;16.85;11.05;;;;;;;20.25;68.26;101040.88;5031692;27;97947;-62
2023/06/18 01:22:47;;;;;;;12.65;10.98;;;;;;;20.23;68.36;101043.66;5031418;27;96847;-61
2023/06/18 01:25:15;;;;;;;12.40;10.98;;;;;;;20.30;68.41;101039.56;5037272;27;98914;-62
2023/06/18 01:27:43;;;;;;;12.80;11.52;;;;;;;20.22;68.40;101050.00;5040272;27;97715;-62
2023/06/18 01:30:12;;;;;;;15.25;11.93;;;;;;;20.14;68.87;101040.78;5034358;27;96948;-62
2023/06/18 01:32:39;;;;;;;13.43;11.23;;;;;;;20.35;68.05;101041.94;5041507;27;97998;-62
2023/06/18 01:35:15;;;;;;;14.75;11.80;;;;;;;20.31;68.04;101045.81;5034374;27;98999;-62
2023/06/18 01:37:49;;;;;;;13.50;10.25;;;;;;;20.23;68.03;101049.03;5030850;27;97865;-62
2023/06/18 01:40:29;;;;;;;14.80;11.05;;;;;;;20.34;67.18;101047.47;5031950;27;96841;-61
2023/06/18 01:43:11;;;;;;;12.18;10.45;;;;;;;20.27;67.47;101041.63;5040132;27;96903;-62
2023/06/18 01:45:43;;;;;;;14.90;10.80;;;;;;;20.40;66.96;101044.34;5026502;27;99356;-62
2023/06/18 01:48:12;;;;;;;15.90;10.57;;;;;;;20.39;66.72;101053.34;5033509;27;98691;-62
2023/06/18 01:50:43;;;;;;;13.90;10.98;;;;;;;20.32;66.76;101052.91;5033415;27;97980;-62
2023/06/18 01:53:15;;;;;;;14.82;11.73;;;;;;;20.24;67.19;101050.75;5040120;27;96876;-61
2023/06/18 01:55:44;;;;;;;14.52;11.43;;;;;;;20.15;67.54;101059.44;5031798;27;99168;-62
2023/06/18 01:58:11;;;;;;;16.13;11.05;;;;;;;20.18;67.66;101059.22;5038321;27;98912;-64
2023/06/18 02:00:40;;;;;;;14.02;11.73;;;;;;;19.95;68.11;101061.81;5036205;27;96902;-61
2023/06/18 02:03:07;;;;;;;12.82;10.52;;;;;;;20.17;67.42;101065.56;5038583;27;97026;-62
2023/06/18 02:05:34;;;;;;;14.18;10.85;;;;;;;20.15;67.46;101064.81;5032341;27;97688;-61
2023/06/18 02:08:02;;;;;;;17.13;10.60;;;;;;;20.36;66.59;101069.66;5032856;27;98021;-62
2023/06/18 02:10:29;;;;;;;13.70;10.73;;;;;;;20.52;66.32;101070.28;5033230;27;96889;-61
2023/06/18 02:12:55;;;;;;;13.98;11.77;;;;;;;20.47;66.41;101076.00;5040431;27;96808;-62
2023/06/18 02:15:22;;;;;;;15.00;11.10;;;;;;;20.22;67.38;101078.66;5038365;27;99116;-61
2023/06/18 02:17:48;;;;;;;12.98;11.05;;;;;;;20.06;68.26;101072.66;5040347;27;98976;-62
2023/06/18 02:20:15;;;;;;;13.98;11.18;;;;;;;20.03;68.63;101067.47;5039700;27;96781;-61
2023/06/18 02:22:42;;;;;;;16.17;10.52;;;;;;;20.15;68.10;101072.84;5032247;27;97841;-61
2023/06/18 02:25:10;;;;;;;14.18;11.68;;;;;;;19.84;69.27;101066.09;5030821;27;99093;-61
2023/06/18 02:27:36;;;;;;;12.18;10.95;;;;;;;19.90;69.11;101070.16;5031425;27;98806;-61
2023/06/18 02:30:04;;;;;;;16.02;11.40;;;;;;;19.80;69.52;101074.47;5038209;27;97131;-62
2023/06/18 02:32:34;;;;;;;14.90;11.15;;;;;;;19.80;69.52;101066.41;5031135;27;96854;-62
2023/06/18 02:35:01;;;;;;;12.48;11.18;;;;;;;19.94;68.87;101076.19;5037728;27;100356;-61
2023/06/18 02:37:27;;;;;;;12.23;10.82;;;;;;;19.99;68.69;101068.69;5035905;27;98789;-61
2023/06/18 02:39:54;;;;;;;14.30;11.20;;;;;;;20.09;67.93;101075.97;5041142;27;96787;-62
2023/06/18 02:42:22;;;;;;;11.98;10.00;;;;;;;20.04;68.03;101078.13;5038237;27;96833;-61
2023/06/18 02:44:48;;;;;;;15.85;11.15;;;;;;;19.76;68.67;101076.47;5036004;27;98971;-62
2023/06/18 02:47:15;;;;;;;12.70;10.77;;;;;;;19.96;68.05;101077.78;5033587;27;99275;-62
2023/06/18 02:49:41;;;;;;;16.02;11.05;;;;;;;19.92;68.17;101070.94;5035373;27;97045;-62
2023/06/18 02:52:07;;;;;;;15.45;11.10;;;;;;;19.93;68.08;101069.97;5037357;27;100705;-62
2023/06/18 02:54:34;;;;;;;14.48;11.40;;;;;;;19.65;69.21;101072.81;5033460;27;97808;-61
2023/06/18 02:57:00;;;;;;;13.98;11.10;;;;;;;19.84;68.85;101078.63;5037855;27;101845;-62
2023/06/18 02:59:28;;;;;;;13.32;10.93;;;;;;;20.15;67.72;101077.38;5038772;27;97543;-61
2023/06/18 03:01:54;;;;;;;14.32;11.52;;;;;;;20.17;67.36;101078.97;5033326;27;97243;-62
2023/06/18 03:04:21;;;;;;;13.68;11.05;;;;;;;19.99;68.04;101074.91;5038412;27;99077;-61
2023/06/18 03:06:47;;;;;;;16.60;11.90;;;;;;;19.83;68.44;101072.41;5035980;27;99047;-61
2023/06/18 03:09:14;;;;;;;12.82;11.40;;;;;;;19.91;68.19;101074.56;5035373;27;96745;-61
2023/06/18 03:11:40;;;;;;;12.98;11.57;;;;;;;19.81;68.86;101071.69;5031056;27;96841;-61
2023/06/18 03:14:07;;;;;;;13.98;11.48;;;;;;;19.84;68.93;101070.59;5036210;27;98995;-62
2023/06/18 03:16:34;;;;;;;13.48;11.07;;;;;;;19.79;69.50;101067.38;5031399;27;98840;-61
2023/06/18 03:19:01;;;;;;;15.82;12.13;;;;;;;19.74;69.57;101072.19;5025876;27;97487;-62
2023/06/18 03:21:27;;;;;;;17.38;11.98;;;;;;;19.70;70.09;101065.31;5039757;27;97023;-62
2023/06/18 03:23:54;;;;;;;16.60;12.88;;;;;;;19.92;69.26;101076.28;5037572;27;101554;-61
2023/06/18 03:26:21;;;;;;;15.80;11.65;;;;;;;20.09;68.33;101081.31;5036509;27;101855;-62
2023/06/18 03:28:48;;;;;;;13.50;11.48;;;;;;;20.24;67.58;101085.63;5030778;27;97754;-62
2023/06/18 03:31:14;;;;;;;15.20;12.32;;;;;;;20.41;66.99;101089.84;5033287;27;96854;-60
2023/06/18 03:33:42;;;;;;;12.95;11.45;;;;;;;20.48;66.61;101091.09;5030429;27;99167;-61
2023/06/18 03:36:11;;;;;;;14.98;12.52;;;;;;;20.27;67.39;101088.13;5037637;27;98895;-64
2023/06/18 03:38:37;;;;;;;19.88;12.70;;;;;;;20.11;68.24;101086.59;5036911;27;96990;-62
2023/06/18 03:41:04;;;;;;;15.20;11.63;;;;;;;19.99;68.99;101087.44;5033280;27;97179;-61
2023/06/18 03:43:30;;;;;;;15.40;11.88;;;;;;;20.20;68.38;101083.28;5030329;27;102237;-61
2023/06/18 03:45:57;;;;;;;14.43;12.32;;;;;;;20.11;68.71;101076.72;5033564;27;99757;-62
2023/06/18 03:48:25;;;;;;;16.33;12.48;;;;;;;20.10;68.91;101080.38;5039562;27;100596;-62
2023/06/18 03:50:52;;;;;;;16.33;11.63;;;;;;;20.01;68.77;101081.03;5037091;27;96918;-62
2023/06/18 03:53:18;;;;;;;14.05;11.55;;;;;;;20.07;68.78;101075.22;5032987;27;99690;-62
2023/06/18 03:55:46;;;;;;;13.30;11.88;;;;;;;20.06;69.06;101078.88;5030956;27;98805;-62
2023/06/18 03:58:13;;;;;;;14.77;12.23;;;;;;;20.40;67.92;101080.09;5030755;27;96863;-62
2023/06/18 04:00:39;;;;;;;13.90;11.52;;;;;;;20.50;67.86;101080.28;5030353;27;97104;-62
2023/06/18 04:03:06;;;;;;;15.95;12.10;;;;;;;20.55;67.24;101072.75;5036199;27;99022;-63
2023/06/18 04:05:32;;;;;;;15.05;11.98;;;;;;;20.48;67.12;101080.38;5034991;27;99544;-62
2023/06/18 04:08:00;;;;;;;13.07;11.65;;;;;;;20.71;67.03;101076.03;5033876;27;96812;-61
2023/06/18 04:10:26;;;;;;;14.77;12.18;;;;;;;20.69;66.93;101080.66;5042982;27;97264;-63
2023/06/18 04:12:53;;;;;;;12.85;11.05;;;;;;;20.95;66.10;101084.13;5039005;27;99132;-62
2023/06/18 04:15:19;;;;;;;13.95;11.48;;;;;;;21.26;65.03;101083.63;5038553;27;100677;-62
2023/06/18 04:17:45;;;;;;;19.38;11.52;;;;;;;20.95;65.35;101090.38;5033396;27;96807;-62
2023/06/18 04:20:13;;;;;;;15.30;12.63;;;;;;;21.28;64.54;101081.66;5038590;27;96872;-63
2023/06/18 04:22:39;;;;;;;14.10;12.20;;;;;;;21.32;64.27;101083.19;5039735;27;97633;-62
2023/06/18 04:25:08;;;;;;;15.98;12.07;;;;;;;21.29;64.47;101085.22;5033247;27;97543;-62
2023/06/18 04:27:34;;;;;;;16.83;12.63;;;;;;;21.42;64.54;101084.19;5031374;27;96688;-62
2023/06/18 04:30:01;;;;;;;14.13;12.52;;;;;;;21.54;64.43;101094.97;5031045;27;97242;-62
2023/06/18 04:32:27;;;;;;;16.65;12.43;;;;;;;21.74;63.95;101092.50;5033302;27;99045;-62
2023/06/18 04:34:54;;;;;;;14.50;12.63;;;;;;;21.82;63.59;101091.91;5035954;27;98721;-61
2023/06/18 04:37:20;;;;;;;16.23;12.50;;;;;;;21.92;63.38;101098.31;5029266;27;96702;-61
2023/06/18 04:39:47;;;;;;;15.23;12.23;;;;;;;22.01;63.01;101097.63;5037360;27;96814;-61
2023/06/18 04:42:15;;;;;;;14.88;12.60;;;;;;;22.30;62.12;101094.47;5033809;27;99285;-61
2023/06/18 04:44:41;;;;;;;15.43;12.82;;;;;;;22.53;61.48;101104.28;5028679;27;98820;-61
2023/06/18 04:47:08;;;;;;;15.10;11.77;;;;;;;22.58;61.29;101105.63;5038912;27;97373;-61
2023/06/18 04:49:34;;;;;;;16.30;13.25;;;;;;;22.88;60.27;101101.47;5035983;27;98984;-61
2023/06/18 04:52:01;;;;;;;15.63;13.35;;;;;;;22.89;60.42;101095.13;5038056;27;99026;-62
2023/06/18 04:54:27;;;;;;;14.25;12.43;;;;;;;22.74;60.45;101090.97;5039713;27;98865;-63
2023/06/18 04:56:56;;;;;;;15.15;12.25;;;;;;;22.93;59.71;101093.88;5039328;27;96903;-62
2023/06/18 04:59:24;;;;;;;13.07;11.65;;;;;;;23.08;59.23;101091.75;5038263;27;97237;-62
2023/06/18 05:01:51;;;;;;;13.60;11.43;;;;;;;23.40;58.18;101092.66;5029173;27;99172;-62
2023/06/18 05:04:17;;;;;;;16.15;12.02;;;;;;;23.18;58.06;101096.25;5035231;27;98831;-63
2023/06/18 05:06:44;;;;;;;13.45;11.18;;;;;;;23.21;58.29;101096.03;5031505;27;96808;-62
2023/06/18 05:09:10;;;;;;;12.75;10.98;;;;;;;23.22;57.96;101097.75;5031059;27;96837;-62
2023/06/18 05:11:36;;;;;;;14.73;11.52;;;;;;;23.43;57.62;101105.88;5029422;27;98856;-61
2023/06/18 05:14:05;;;;;;;14.27;11.75;;;;;;;23.38;57.61;101097.28;5020790;27;99080;-61
2023/06/18 05:16:33;;;;;;;17.30;11.20;;;;;;;23.92;56.24;101101.75;5029533;27;96834;-61
2023/06/18 05:19:00;;;;;;;13.73;11.15;;;;;;;24.28;54.89;101092.34;5024587;27;96986;-62
2023/06/18 05:21:26;;;;;;;12.20;10.23;;;;;;;24.42;54.22;101092.84;5030215;27;98956;-61
2023/06/18 05:23:52;;;;;;;12.57;11.25;;;;;;;24.55;54.36;101098.00;5031481;27;99379;-61
2023/06/18 05:26:20;;;;;;;12.93;10.88;;;;;;;24.48;52.98;101104.97;5028061;27;96901;-61
2023/06/18 05:28:47;;;;;;;11.70;9.95;;;;;;;24.76;52.33;101103.34;5025246;27;96822;-62
2023/06/18 05:31:13;;;;;;;11.40;10.07;;;;;;;25.29;51.80;101098.53;5031213;27;99760;-62
2023/06/18 05:33:41;;;;;;;12.90;10.30;;;;;;;25.06;51.42;101106.06;5031006;27;101848;-62
2023/06/18 05:36:07;;;;;;;10.70;9.65;;;;;;;25.09;51.35;101094.94;5038779;27;96814;-61
2023/06/18 05:38:34;;;;;;;12.05;9.27;;;;;;;25.25;50.50;101100.69;5030603;27;96854;-62
2023/06/18 05:41:00;;;;;;;12.60;9.25;;;;;;;25.28;50.25;101096.81;5028182;27;99018;-66
2023/06/18 05:43:26;;;;;;;10.27;8.32;;;;;;;25.20;50.16;101099.41;5032408;27;97717;-62
2023/06/18 05:45:53;;;;;;;11.38;9.43;;;;;;;25.41;49.53;101092.84;5039944;27;98091;-63
2023/06/18 05:48:19;;;;;;;11.30;9.73;;;;;;;25.40;49.35;101087.59;5030995;27;96841;-62
2023/06/18 05:50:47;;;;;;;10.18;9.10;;;;;;;25.52;48.43;101091.03;5038709;27;99099;-62
2023/06/18 05:53:14;;;;;;;11.15;9.35;;;;;;;25.60;48.50;101100.16;5030642;27;98658;-61
2023/06/18 05:55:40;;;;;;;10.82;9.32;;;;;;;25.42;48.31;101107.25;5027500;27;96741;-61
2023/06/18 05:58:07;;;;;;;10.32;8.95;;;;;;;25.37;48.19;101115.78;5037792;27;96843;-61
2023/06/18 06:00:35;;;;;;;13.45;8.60;;;;;;;25.45;46.68;101109.69;5028825;27;98584;-61
2023/06/18 06:03:01;;;;;;;9.75;8.73;;;;;;;25.67;45.64;101116.66;5028167;27;99338;-61
2023/06/18 06:05:27;;;;;;;9.40;7.78;;;;;;;25.38;45.79;101111.22;5028881;27;96790;-61
2023/06/18 06:07:55;;;;;;;16.83;9.38;;;;;;;25.48;45.74;101112.06;5031532;27;97196;-62
2023/06/18 06:10:22;;;;;;;11.50;9.45;;;;;;;25.89;44.96;101110.13;5028011;27;97672;-62
2023/06/18 06:12:49;;;;;;;10.43;7.80;;;;;;;26.18;45.14;101108.22;5033495;27;99231;-61
2023/06/18 06:15:15;;;;;;;12.55;9.43;;;;;;;25.84;45.66;101123.22;5034831;27;96813;-62
2023/06/18 06:17:42;;;;;;;13.48;9.60;;;;;;;26.30;44.45;101117.91;5030530;27;96857;-62
2023/06/18 06:20:09;;;;;;;13.95;9.32;;;;;;;26.45;44.85;101118.31;5040057;27;98243;-63
2023/06/18 06:22:35;;;;;;;9.88;8.07;;;;;;;26.33;44.25;101124.88;5037884;27;99179;-62
2023/06/18 06:25:03;;;;;;;9.85;7.95;;;;;;;26.18;43.96;101129.91;5031991;27;96720;-63
2023/06/18 06:27:30;;;;;;;9.07;7.07;;;;;;;26.38;43.63;101123.47;5035796;27;96756;-62
2023/06/18 06:29:56;;;;;;;7.95;6.30;;;;;;;26.68;43.01;101130.47;5033192;27;99029;-61
2023/06/18 06:32:23;;;;;;;8.05;6.35;;;;;;;26.11;42.67;101134.19;5036994;27;99197;-62
2023/06/18 06:34:49;;;;;;;7.95;6.22;;;;;;;26.19;43.15;101137.84;5034523;27;97172;-63
2023/06/18 06:37:16;;;;;;;9.65;6.07;;;;;;;26.21;42.03;101137.72;5034296;27;97057;-62
2023/06/18 06:39:42;;;;;;;7.18;5.90;;;;;;;26.54;41.33;101133.66;5032472;27;97771;-62
2023/06/18 06:42:10;;;;;;;7.30;5.82;;;;;;;27.05;40.82;101144.00;5033474;27;99341;-62
2023/06/18 06:44:37;;;;;;;6.05;5.45;;;;;;;26.66;41.19;101147.88;5031481;27;97131;-61
2023/06/18 06:47:04;;;;;;;5.82;5.22;;;;;;;26.75;41.40;101147.84;5032694;27;96862;-63
2023/06/18 06:49:30;;;;;;;6.22;5.63;;;;;;;26.81;41.00;101144.53;5031833;27;101759;-63
2023/06/18 06:51:57;;;;;;;8.93;5.80;;;;;;;27.28;40.16;101145.31;5031422;27;99094;-62
2023/06/18 06:54:23;;;;;;;8.82;5.15;;;;;;;27.32;40.17;101140.44;5030249;27;96814;-62
2023/06/18 06:56:50;;;;;;;7.75;6.95;;;;;;;27.24;40.66;101137.66;5031428;27;97218;-63
2023/06/18 06:59:18;;;;;;;7.70;6.90;;;;;;;26.95;40.73;101144.09;5032711;27;99189;-63
2023/06/18 07:01:44;;;;;;;6.78;6.15;;;;;;;26.98;40.75;101143.75;5037606;27;97537;-62
2023/06/18 07:04:11;;;;;;;9.48;5.95;;;;;;;27.20;40.35;101139.81;5031345;27;96851;-62
2023/06/18 07:06:39;;;;;;;7.00;6.30;;;;;;;27.27;39.93;101138.19;5038838;27;96948;-62
2023/06/18 07:09:05;;;;;;;6.25;5.50;;;;;;;27.67;39.05;101134.22;5037498;27;99105;-62
2023/06/18 07:11:32;;;;;;;7.22;6.50;;;;;;;27.64;39.38;101140.78;5042628;27;97628;-63
2023/06/18 07:13:59;;;;;;;6.68;5.28;;;;;;;27.84;39.97;101136.06;5032168;27;96897;-62
2023/06/18 07:16:27;;;;;;;7.10;6.40;;;;;;;27.81;39.60;101138.25;5041665;27;96758;-61
2023/06/18 07:18:53;;;;;;;7.53;6.15;;;;;;;27.57;40.55;101141.59;5030038;27;99131;-62
2023/06/18 07:21:19;;;;;;;8.98;7.10;;;;;;;27.50;40.05;101137.75;5031136;27;99039;-62
2023/06/18 07:23:46;;;;;;;8.00;6.38;;;;;;;27.33;40.57;101129.44;5032699;27;97037;-61
2023/06/18 07:26:12;;;;;;;9.45;6.85;;;;;;;27.49;40.04;101133.34;5029750;27;96791;-62
2023/06/18 07:28:39;;;;;;;6.35;5.75;;;;;;;27.56;40.03;101127.16;5031313;27;98971;-62
2023/06/18 07:31:05;;;;;;;7.03;6.35;;;;;;;27.93;39.27;101121.53;5042425;27;99135;-62
2023/06/18 07:33:33;;;;;;;7.03;6.25;;;;;;;27.78;39.15;101120.38;5033634;27;97527;-62
2023/06/18 07:36:00;;;;;;;6.32;5.60;;;;;;;28.12;38.26;101124.06;5035756;27;96867;-63
2023/06/18 07:38:26;;;;;;;6.35;5.70;;;;;;;28.20;38.09;101117.03;5031761;27;97842;-62
2023/06/18 07:40:52;;;;;;;7.05;6.10;;;;;;;27.95;38.63;101122.25;5035173;27;98784;-69
2023/06/18 07:43:19;;;;;;;5.90;5.38;;;;;;;27.93;38.58;101117.97;5033150;27;96869;-68
2023/06/18 07:45:45;;;;;;;8.20;5.10;;;;;;;28.11;38.00;101118.78;5034590;27;97271;-67
2023/06/18 07:48:12;;;;;;;6.10;5.50;;;;;;;27.86;38.22;101127.75;5032455;27;100673;-68
2023/06/18 07:50:40;;;;;;;5.78;5.28;;;;;;;27.98;37.21;101121.91;5030185;27;98875;-68
2023/06/18 07:53:06;;;;;;;6.63;5.40;;;;;;;28.29;36.37;101121.50;5036324;27;96783;-67
2023/06/18 07:55:32;;;;;;;6.40;5.43;;;;;;;28.45;36.80;101127.88;5030205;27;96921;-67
2023/06/18 07:57:59;;;;;;;5.88;5.22;;;;;;;28.58;36.73;101130.16;5030691;27;101760;-68
2023/06/18 08:00:25;;;;;;;6.53;5.80;;;;;;;28.65;36.79;101135.81;5033984;27;98756;-68
2023/06/18 08:02:52;;;;;;;6.93;6.22;;;;;;;28.28;37.69;101127.97;5036467;27;100798;-69
2023/06/18 08:05:19;;;;;;;6.57;5.60;;;;;;;27.93;38.11;101123.41;5033100;27;97052;-67
2023/06/18 08:07:46;;;;;;;5.68;5.13;;;;;;;28.04;38.38;101124.00;5033228;27;99016;-67
2023/06/18 08:10:13;;;;;;;6.75;5.57;;;;;;;28.07;37.91;101123.69;5036845;27;98744;-68
2023/06/18 08:12:39;;;;;;;4.78;4.38;;;;;;;28.29;38.43;101118.81;5033991;27;96713;-68
2023/06/18 08:15:07;;;;;;;5.70;4.88;;;;;;;28.17;36.01;101125.47;5029758;27;97510;-67
2023/06/18 08:17:33;;;;;;;4.82;4.35;;;;;;;28.25;36.58;101128.25;5038919;27;99553;-68
2023/06/18 08:20:00;;;;;;;4.80;4.18;;;;;;;28.05;36.54;101123.00;5034803;27;98830;-67
2023/06/18 08:22:27;;;;;;;5.15;4.28;;;;;;;27.92;36.82;101118.97;5035356;27;97307;-69
2023/06/18 08:24:55;;;;;;;5.65;5.13;;;;;;;27.66;37.64;101127.94;5029651;27;96815;-67
2023/06/18 08:27:21;;;;;;;5.60;4.97;;;;;;;27.76;37.93;101125.16;5032147;27;99485;-67
2023/06/18 08:29:48;;;;;;;4.70;4.30;;;;;;;27.69;37.13;101127.63;5027889;27;98125;-67
2023/06/18 08:32:14;;;;;;;4.47;3.88;;;;;;;27.61;35.92;101123.97;5029358;27;97175;-67
2023/06/18 08:34:42;;;;;;;5.13;4.30;;;;;;;28.10;34.59;101119.78;5031886;27;96960;-68
2023/06/18 08:37:09;;;;;;;4.20;3.85;;;;;;;28.66;34.44;101119.34;5035707;27;98854;-67
2023/06/18 08:39:35;;;;;;;4.45;4.05;;;;;;;29.00;34.29;101119.34;5031900;27;97558;-67
2023/06/18 08:42:03;;;;;;;4.88;4.47;;;;;;;29.11;33.72;101113.59;5037180;27;96868;-68
2023/06/18 08:44:33;;;;;;;7.93;4.82;;;;;;;29.60;33.01;101111.84;5031721;27;96878;-68
2023/06/18 08:47:03;;;;;;;5.03;3.80;;;;;;;29.60;32.70;101109.13;5039555;27;98947;-70
2023/06/18 08:49:30;;;;;;;4.93;4.45;;;;;;;29.73;32.66;101112.19;5032909;27;98896;-68
2023/06/18 08:51:58;;;;;;;5.50;3.80;;;;;;;30.09;31.57;101117.34;5039932;27;97651;-68
2023/06/18 08:54:33;;;;;;;6.55;4.25;;;;;;;29.96;31.99;101106.97;5030655;27;97088;-67
2023/06/18 08:57:06;;;;;;;4.78;4.38;;;;;;;29.61;32.85;101112.69;5044955;27;101242;-68
2023/06/18 08:59:33;;;;;;;7.57;4.80;;;;;;;29.58;32.64;101102.16;5032102;27;97844;-68
2023/06/18 09:02:00;;;;;;;8.43;4.90;;;;;;;29.37;33.16;101112.69;5029627;27;96846;-68
2023/06/18 09:04:29;;;;;;;7.05;4.00;;;;;;;29.35;33.51;101117.44;5030671;27;97320;-68
2023/06/18 09:06:56;;;;;;;4.80;4.30;;;;;;;29.43;33.34;101121.03;5035412;27;98858;-68
2023/06/18 09:09:23;;;;;;;6.00;4.75;;;;;;;29.35;33.42;101123.72;5032080;27;99855;-67
2023/06/18 09:11:50;;;;;;;4.60;4.10;;;;;;;29.35;33.53;101115.56;5035910;27;96720;-68
2023/06/18 09:14:17;;;;;;;4.93;4.43;;;;;;;29.30;33.53;101121.47;5038038;27;97873;-67
2023/06/18 09:16:44;;;;;;;5.93;4.47;;;;;;;28.94;33.29;101122.75;5030398;27;99099;-67
2023/06/18 09:19:12;;;;;;;9.60;5.28;;;;;;;28.86;33.43;101119.97;5034365;27;99168;-68
2023/06/18 09:21:40;;;;;;;5.63;4.97;;;;;;;28.63;34.23;101114.22;5032483;27;96844;-68
2023/06/18 09:24:08;;;;;;;9.15;5.03;;;;;;;28.54;34.24;101107.06;5037494;27;96950;-68
2023/06/18 09:26:35;;;;;;;4.95;4.30;;;;;;;28.81;34.14;101108.75;5034087;27;99142;-67
2023/06/18 09:29:06;;;;;;;4.35;3.95;;;;;;;29.00;33.29;101104.91;5030175;27;98628;-68
2023/06/18 09:31:34;;;;;;;5.45;4.60;;;;;;;29.44;32.75;101106.41;5030306;27;96923;-67
2023/06/18 09:34:11;;;;;;;5.47;4.07;;;;;;;29.70;32.77;101107.09;5028532;27;96839;-68
2023/06/18 09:36:40;;;;;;;5.10;4.28;;;;;;;29.16;32.88;101108.50;5028730;27;99118;-67
2023/06/18 09:39:15;;;;;;;4.63;4.30;;;;;;;29.47;31.82;101107.94;5039084;27;99553;-67
2023/06/18 09:41:43;;;;;;;5.23;4.10;;;;;;;29.85;31.62;101107.28;5037384;27;97029;-67
2023/06/18 09:44:10;;;;;;;4.22;3.83;;;;;;;29.86;31.89;101111.72;5028277;27;96760;-68
2023/06/18 09:46:37;;;;;;;4.40;4.00;;;;;;;29.53;31.86;101116.28;5032422;27;99204;-68
2023/06/18 09:49:04;;;;;;;4.28;3.85;;;;;;;29.58;31.98;101111.19;5028555;27;98218;-67
2023/06/18 09:51:31;;;;;;;4.72;4.13;;;;;;;29.62;32.08;101108.97;5032505;27;96675;-69
2023/06/18 09:53:59;;;;;;;8.73;7.80;;;;;;;29.61;31.90;101105.38;5038754;27;96816;-68
2023/06/18 09:56:26;;;;;;;5.03;4.50;;;;;;;29.48;31.99;101115.06;5036297;27;98516;-69
2023/06/18 09:58:52;;;;;;;6.60;4.68;;;;;;;29.53;31.53;101110.00;5035529;27;99912;-68
2023/06/18 10:04:04;;;;;;;4.60;4.20;;;;;;;29.35;32.71;101110.13;5029460;27;96863;-68
2023/06/18 10:06:30;;;;;;;6.53;4.38;;;;;;;29.23;33.27;101104.09;5036178;27;99037;-68
2023/06/18 10:08:59;;;;;;;4.70;4.32;;;;;;;29.28;33.68;101109.03;5031387;27;99149;-67
2023/06/18 10:11:26;;;;;;;5.63;3.97;;;;;;;29.06;33.59;101107.81;5037256;27;96795;-68
2023/06/18 10:13:56;;;;;;;7.80;3.55;;;;;;;29.11;33.54;101100.00;5031526;27;96785;-68
2023/06/18 10:16:26;;;;;;;4.80;3.78;;;;;;;29.58;32.55;101096.72;5036468;27;98979;-68
2023/06/18 10:19:01;;;;;;;3.67;3.38;;;;;;;29.57;30.94;101104.03;5031840;27;100872;-68
2023/06/18 10:21:29;;;;;;;3.88;3.42;;;;;;;29.52;31.36;101105.56;5033130;27;96792;-68
2023/06/18 10:23:57;;;;;;;5.78;5.05;;;;;;;29.57;31.78;101098.59;5028244;27;96792;-69
2023/06/18 10:26:25;;;;;;;4.15;3.75;;;;;;;30.11;30.16;101101.69;5034012;27;99120;-67
2023/06/18 10:28:52;;;;;;;5.88;3.83;;;;;;;29.98;30.62;101104.06;5037077;27;99230;-67
2023/06/18 10:31:20;;;;;;;4.13;3.50;;;;;;;29.69;31.21;101102.69;5032035;27;97114;-68
2023/06/18 10:33:47;;;;;;;3.85;3.45;;;;;;;29.62;31.31;101100.78;5031439;27;96832;-68
2023/06/18 10:36:14;;;;;;;5.80;3.88;;;;;;;29.62;31.96;101098.06;5038718;27;99095;-67
2023/06/18 10:38:44;;;;;;;5.13;3.30;;;;;;;29.92;31.04;101099.31;5032045;27;98626;-68
2023/06/18 10:41:12;;;;;;;3.80;3.42;;;;;;;29.40;31.43;101096.88;5035331;27;97451;-68
2023/06/18 10:43:42;;;;;;;4.95;3.72;;;;;;;29.41;31.43;101094.97;5025326;27;96817;-67
2023/06/18 10:46:10;;;;;;;3.70;3.33;;;;;;;29.25;30.78;101096.63;5034185;27;97874;-68
2023/06/18 10:48:37;;;;;;;5.15;3.40;;;;;;;29.25;29.88;101095.78;5033552;27;97099;-68
2023/06/18 10:51:18;;;;;;;4.35;3.33;;;;;;;29.39;30.89;101097.03;5037507;27;97027;-68
2023/06/18 10:53:47;;;;;;;3.97;3.13;;;;;;;29.20;32.09;101098.16;5026134;27;97239;-68
2023/06/18 10:56:15;;;;;;;7.28;3.45;;;;;;;29.22;32.00;101096.09;5033113;27;99312;-68
2023/06/18 10:58:43;;;;;;;6.85;4.10;;;;;;;29.21;32.52;101089.81;5034827;27;98940;-68
2023/06/18 11:01:24;;;;;;;3.92;3.38;;;;;;;29.36;32.04;101086.47;5034651;27;100391;-68
2023/06/18 11:04:00;;;;;;;4.90;3.58;;;;;;;29.24;31.19;101091.34;5028273;27;97262;-67
2023/06/18 11:06:29;;;;;;;4.10;2.90;;;;;;;29.46;30.96;101085.31;5036699;27;99334;-68
2023/06/18 11:08:57;;;;;;;3.40;3.10;;;;;;;29.47;30.79;101072.56;5040718;27;98932;-68
2023/06/18 11:11:25;;;;;;;3.40;3.15;;;;;;;29.85;29.98;101076.47;5037040;27;97021;-68
2023/06/18 11:13:53;;;;;;;3.40;3.03;;;;;;;29.87;29.68;101079.84;5032692;27;97190;-68
2023/06/18 11:16:21;;;;;;;4.40;3.25;;;;;;;29.63;29.69;101078.84;5032528;27;99425;-68
2023/06/18 11:18:48;;;;;;;4.07;2.88;;;;;;;29.41;29.56;101073.19;5031798;27;98238;-69
2023/06/18 11:21:16;;;;;;;3.67;3.03;;;;;;;29.59;29.81;101072.06;5031518;27;97195;-70